createdAt,value
2022-09-05T00:01:55.625Z,25.08
2022-09-05T00:04:25.883Z,25.28
2022-09-05T00:07:07.050Z,25.46
2022-09-05T00:09:38.207Z,25.57
2022-09-05T00:12:10.651Z,25.59
2022-09-05T00:15:15.262Z,25.59
2022-09-05T00:20:40.685Z,25.63
2022-09-05T00:24:27.420Z,25.28
2022-09-05T00:24:32.019Z,25.27
2022-09-05T00:27:04.017Z,25.24
2022-09-05T00:31:07.767Z,25.39
2022-09-05T00:32:44.273Z,25.42
2022-09-05T00:35:19.658Z,24.99
2022-09-05T00:37:58.931Z,25.11
2022-09-05T00:40:30.377Z,25.10
2022-09-05T00:43:05.500Z,24.89
2022-09-05T00:45:38.475Z,24.95
2022-09-05T00:48:12.484Z,25.09
2022-09-05T00:50:56.492Z,25.27
2022-09-05T00:53:27.205Z,25.39
2022-09-05T00:56:00.177Z,25.37
2022-09-05T00:58:34.374Z,25.21
2022-09-05T01:01:20.597Z,25.30
2022-09-05T01:03:58.286Z,25.27
2022-09-05T01:06:34.359Z,25.35
2022-09-05T01:09:08.447Z,25.36
2022-09-05T01:11:43.999Z,25.36
2022-09-05T01:14:16.491Z,25.33
2022-09-05T01:17:02.878Z,25.32
2022-09-05T01:19:34.078Z,25.36
2022-09-05T01:22:07.657Z,25.29
2022-09-05T01:24:44.358Z,25.27
2022-09-05T01:27:56.269Z,25.26
2022-09-05T01:30:31.657Z,25.08
2022-09-05T01:33:06.371Z,25.09
2022-09-05T01:35:42.001Z,24.77
2022-09-05T01:38:37.780Z,24.86
2022-09-05T01:41:18.266Z,25.00
2022-09-05T01:44:05.700Z,25.05
2022-09-05T01:46:35.663Z,25.05
2022-09-05T01:49:25.122Z,25.11
2022-09-05T01:51:53.691Z,24.41
2022-09-05T01:54:27.022Z,24.47
2022-09-05T01:57:11.615Z,24.71
2022-09-05T01:59:48.345Z,24.83
2022-09-05T02:02:34.614Z,24.91
2022-09-05T02:05:14.965Z,25.02
2022-09-05T02:07:54.815Z,25.07
2022-09-05T02:10:31.199Z,25.09
2022-09-05T02:13:22.088Z,25.00
2022-09-05T02:16:00.723Z,24.90
2022-09-05T02:18:29.994Z,24.72
2022-09-05T02:21:01.234Z,24.73
2022-09-05T02:23:40.509Z,24.84
2022-09-05T02:26:15.816Z,24.85
2022-09-05T02:29:03.293Z,24.64
2022-09-05T02:31:42.471Z,24.78
2022-09-05T02:34:13.054Z,24.68
2022-09-05T02:36:47.077Z,24.84
2022-09-05T02:44:27.128Z,24.87
2022-09-05T02:45:21.360Z,24.71
2022-09-05T02:45:30.337Z,24.39
2022-09-05T02:48:14.905Z,24.42
2022-09-05T02:57:23.823Z,24.48
2022-09-05T02:57:37.438Z,24.59
2022-09-05T02:57:43.491Z,24.63
2022-09-05T02:59:47.660Z,24.75
2022-09-05T03:02:30.044Z,24.60
2022-09-05T03:05:16.288Z,24.56
2022-09-05T03:07:53.099Z,24.50
2022-09-05T03:10:53.893Z,24.27
2022-09-05T03:13:35.447Z,24.15
2022-09-05T03:16:11.946Z,24.21
2022-09-05T03:18:45.723Z,24.14
2022-09-05T03:21:31.938Z,24.01
2022-09-05T03:23:59.638Z,24.10
2022-09-05T03:26:34.086Z,24.19
2022-09-05T03:29:20.230Z,24.27
2022-09-05T03:31:57.004Z,24.28
2022-09-05T03:34:43.378Z,24.12
2022-09-05T03:37:20.210Z,24.26
2022-09-05T03:40:15.477Z,24.47
2022-09-05T03:43:02.799Z,24.39
2022-09-05T03:45:37.252Z,24.30
2022-09-05T03:48:28.826Z,24.23
2022-09-05T03:57:06.347Z,24.33
2022-09-05T03:57:10.994Z,24.41
2022-09-05T03:57:38.818Z,24.47
2022-09-05T04:00:09.791Z,24.43
2022-09-05T04:06:47.226Z,24.40
2022-09-05T04:08:17.041Z,24.07
2022-09-05T04:08:43.292Z,24.16
2022-09-05T04:11:21.142Z,24.14
2022-09-05T04:13:54.098Z,23.72
2022-09-05T04:16:54.452Z,23.67
2022-09-05T04:19:37.262Z,23.64
2022-09-05T04:22:28.630Z,23.63
2022-09-05T04:25:04.826Z,23.75
2022-09-05T04:27:50.465Z,23.72
2022-09-05T04:30:38.961Z,23.84
2022-09-05T04:33:35.956Z,23.49
2022-09-05T04:36:18.109Z,23.53
2022-09-05T04:38:45.881Z,23.70
2022-09-05T04:41:16.706Z,23.26
2022-09-05T04:43:43.946Z,22.93
2022-09-05T04:46:18.752Z,23.12
2022-09-05T04:48:52.349Z,23.40
2022-09-05T04:51:21.582Z,23.56
2022-09-05T04:54:07.372Z,23.80
2022-09-05T04:56:40.242Z,23.69
2022-09-05T05:00:54.366Z,23.76
2022-09-05T05:06:04.444Z,23.80
2022-09-05T05:06:14.077Z,23.81
2022-09-05T05:08:07.532Z,23.50
2022-09-05T05:16:35.641Z,23.64
2022-09-05T05:17:58.680Z,23.70
2022-09-05T05:18:09.265Z,23.71
2022-09-05T05:20:42.673Z,23.84
2022-09-05T05:22:56.507Z,23.98
2022-09-05T05:25:32.600Z,24.03
2022-09-05T05:28:23.897Z,24.17
2022-09-05T05:31:29.962Z,23.93
2022-09-05T05:34:16.174Z,24.17
2022-09-05T05:37:01.545Z,24.08
2022-09-05T05:39:34.240Z,24.08
2022-09-05T05:42:19.905Z,24.03
2022-09-05T05:44:57.423Z,23.95
2022-09-05T05:47:31.891Z,24.01
2022-09-05T05:50:03.116Z,24.11
2022-09-05T05:52:33.422Z,23.89
2022-09-05T05:55:51.832Z,24.03
2022-09-05T05:58:36.169Z,24.10
2022-09-05T06:01:22.042Z,23.99
2022-09-05T06:04:16.440Z,24.27
2022-09-05T06:06:53.257Z,23.65
2022-09-05T06:14:47.926Z,23.81
2022-09-05T06:15:02.635Z,24.10
2022-09-05T06:15:46.602Z,24.04
2022-09-05T06:18:52.536Z,24.09
2022-09-05T06:22:09.227Z,24.03
2022-09-05T06:24:35.445Z,24.28
2022-09-05T06:27:06.631Z,24.09
2022-09-05T06:29:49.765Z,24.30
2022-09-05T06:32:20.605Z,24.44
2022-09-05T06:35:07.008Z,24.33
2022-09-05T06:38:06.422Z,24.15
2022-09-05T06:40:57.795Z,24.20
2022-09-05T06:43:45.465Z,24.31
2022-09-05T06:46:52.847Z,24.31
2022-09-05T06:49:35.822Z,24.38
2022-09-05T06:52:29.465Z,24.37
2022-09-05T06:55:05.768Z,24.44
2022-09-05T06:57:44.155Z,24.44
2022-09-05T07:00:22.530Z,24.63
2022-09-05T07:05:50.563Z,24.51
2022-09-05T07:08:35.214Z,24.76
2022-09-05T07:11:16.173Z,24.87
2022-09-05T07:13:50.272Z,24.94
2022-09-05T07:16:37.217Z,25.02
2022-09-05T07:19:27.784Z,25.16
2022-09-05T07:22:04.661Z,25.12
2022-09-05T07:24:53.742Z,25.05
2022-09-05T07:27:30.584Z,25.18
2022-09-05T07:30:04.385Z,25.42
2022-09-05T07:32:39.357Z,25.62
2022-09-05T07:35:07.581Z,25.73
2022-09-05T07:37:40.935Z,25.87
2022-09-05T07:40:25.700Z,26.01
2022-09-05T07:43:10.131Z,25.78
2022-09-05T07:45:52.158Z,25.61
2022-09-05T07:48:34.502Z,25.99
2022-09-05T07:56:48.097Z,26.12
2022-09-05T07:57:06.382Z,26.12
2022-09-05T07:57:30.616Z,26.00
2022-09-05T08:00:05.743Z,26.33
2022-09-05T08:02:52.723Z,26.61
2022-09-05T08:05:34.880Z,26.62
2022-09-05T08:08:04.735Z,26.50
2022-09-05T08:10:35.773Z,25.94
2022-09-05T08:13:30.241Z,25.97
2022-09-05T08:16:15.239Z,26.02
2022-09-05T08:18:48.491Z,26.77
2022-09-05T08:21:27.743Z,27.44
2022-09-05T08:24:13.197Z,27.48
2022-09-05T08:26:49.646Z,28.44
2022-09-05T08:29:26.692Z,27.45
2022-09-05T08:32:13.063Z,26.76
2022-09-05T08:34:45.399Z,26.07
2022-09-05T08:37:20.855Z,26.25
2022-09-05T08:40:10.164Z,26.71
2022-09-05T08:45:39.549Z,26.48
2022-09-05T08:46:46.181Z,26.76
2022-09-05T08:48:46.563Z,27.03
2022-09-05T08:51:26.496Z,26.77
2022-09-05T08:54:12.313Z,26.62
2022-09-05T08:56:43.587Z,26.65
2022-09-05T08:59:31.684Z,26.49
2022-09-05T09:02:47.186Z,26.68
2022-09-05T09:05:25.498Z,26.76
2022-09-05T09:08:29.015Z,27.01
2022-09-05T09:11:14.348Z,27.04
2022-09-05T09:14:02.853Z,26.98
2022-09-05T09:16:48.582Z,27.15
2022-09-05T09:19:29.086Z,27.61
2022-09-05T09:22:02.591Z,28.17
2022-09-05T09:24:43.307Z,28.13
2022-09-05T09:27:44.553Z,27.56
2022-09-05T09:30:30.390Z,27.03
2022-09-05T09:33:02.206Z,27.31
2022-09-05T09:35:41.173Z,27.67
2022-09-05T09:38:16.920Z,27.89
2022-09-05T09:41:03.071Z,28.04
2022-09-05T09:43:36.387Z,27.83
2022-09-05T09:46:18.320Z,27.77
2022-09-05T09:48:51.484Z,27.61
2022-09-05T09:51:37.847Z,27.89
2022-09-05T09:54:16.544Z,28.13
2022-09-05T09:56:54.282Z,28.09
2022-09-05T09:59:30.284Z,28.32
2022-09-05T10:02:49.364Z,28.02
2022-09-05T10:10:39.520Z,27.97
2022-09-05T10:10:51.890Z,27.88
2022-09-05T10:14:03.063Z,28.04
2022-09-05T10:17:04.665Z,28.11
2022-09-05T10:20:09.863Z,28.52
2022-09-05T10:22:43.762Z,28.91
2022-09-05T10:25:32.584Z,29.03
2022-09-05T10:28:06.809Z,29.13
2022-09-05T10:32:40.458Z,29.29
2022-09-05T10:35:09.479Z,29.17
2022-09-05T10:36:36.490Z,29.63
2022-09-05T10:39:21.239Z,29.26
2022-09-05T10:42:03.591Z,29.57
2022-09-05T10:44:51.510Z,29.01
2022-09-05T10:47:38.220Z,29.21
2022-09-05T10:50:24.394Z,29.45
2022-09-05T10:52:57.684Z,29.18
2022-09-05T10:55:33.173Z,29.68
2022-09-05T10:58:08.168Z,29.87
2022-09-05T11:02:22.026Z,30.57
2022-09-05T11:03:52.371Z,30.47
2022-09-05T11:06:25.417Z,30.94
2022-09-05T11:09:01.470Z,30.75
2022-09-05T11:11:34.781Z,31.09
2022-09-05T11:14:05.070Z,30.68
2022-09-05T11:17:01.774Z,30.64
2022-09-05T11:19:37.112Z,30.74
2022-09-05T11:22:23.873Z,32.34
2022-09-05T11:25:00.879Z,32.81
2022-09-05T11:27:40.104Z,32.64
2022-09-05T11:30:30.327Z,33.41
2022-09-05T11:39:48.891Z,34.38
2022-09-05T11:40:09.968Z,35.83
2022-09-05T11:40:31.021Z,36.73
2022-09-05T11:42:47.499Z,36.70
2022-09-05T11:45:21.903Z,36.63
2022-09-05T11:48:00.820Z,35.78
2022-09-05T11:50:37.543Z,33.89
2022-09-05T11:53:10.500Z,34.03
2022-09-05T11:55:38.242Z,32.95
2022-09-05T11:58:44.647Z,32.04
2022-09-05T12:01:43.058Z,33.05
2022-09-05T12:04:28.983Z,35.64
2022-09-05T12:07:26.229Z,36.41
2022-09-05T12:10:38.495Z,37.84
2022-09-05T12:13:09.441Z,38.14
2022-09-05T12:15:49.733Z,37.49
2022-09-05T12:18:46.079Z,37.20
2022-09-05T12:21:29.012Z,37.72
2022-09-05T12:25:16.137Z,36.70
2022-09-05T12:27:41.797Z,37.39
2022-09-05T12:29:59.948Z,37.52
2022-09-05T12:35:45.728Z,37.63
2022-09-05T12:36:11.165Z,36.79
2022-09-05T12:40:54.115Z,35.89
2022-09-05T12:42:15.200Z,34.46
2022-09-05T12:44:56.850Z,35.82
2022-09-05T12:47:30.141Z,37.44
2022-09-05T12:50:14.430Z,38.16
2022-09-05T12:53:07.040Z,36.59
2022-09-05T12:56:21.830Z,36.91
2022-09-05T13:03:09.722Z,37.72
2022-09-05T13:03:13.537Z,37.91
2022-09-05T13:05:01.920Z,39.12
2022-09-05T13:07:41.124Z,39.82
2022-09-05T13:14:46.227Z,39.35
2022-09-05T13:14:58.315Z,38.92
2022-09-05T13:16:08.698Z,39.19
2022-09-05T13:19:07.768Z,40.49
2022-09-05T13:21:40.117Z,39.79
2022-09-05T13:24:15.514Z,40.63
2022-09-05T13:26:56.168Z,39.44
2022-09-05T13:32:02.553Z,38.76
2022-09-05T13:37:56.585Z,38.87
2022-09-05T13:38:07.905Z,38.60
2022-09-05T13:38:52.542Z,39.06
2022-09-05T13:41:28.317Z,37.64
2022-09-05T13:44:26.266Z,36.34
2022-09-05T13:46:59.267Z,34.74
2022-09-05T13:49:37.161Z,34.16
2022-09-05T13:52:10.255Z,33.42
2022-09-05T13:54:51.721Z,33.02
2022-09-05T13:57:33.131Z,32.17
2022-09-05T14:00:08.602Z,31.77
2022-09-05T14:03:37.829Z,31.54
2022-09-05T14:10:03.223Z,31.30
2022-09-05T14:12:37.209Z,31.15
2022-09-05T14:15:11.314Z,31.02
2022-09-05T14:17:58.348Z,30.80
2022-09-05T14:20:49.512Z,30.78
2022-09-05T14:23:21.380Z,30.43
2022-09-05T14:26:00.041Z,30.24
2022-09-05T14:28:35.575Z,30.30
2022-09-05T14:35:27.729Z,30.24
2022-09-05T14:37:52.209Z,30.07
2022-09-05T14:37:52.710Z,30.14
2022-09-05T14:39:58.026Z,30.04
2022-09-05T14:42:34.940Z,29.76
2022-09-05T14:45:15.549Z,29.80
2022-09-05T14:47:53.163Z,29.83
2022-09-05T14:50:39.647Z,30.03
2022-09-05T15:00:25.552Z,29.94
2022-09-05T15:02:42.233Z,29.73
2022-09-05T15:02:56.070Z,29.79
2022-09-05T15:05:22.046Z,29.67
2022-09-05T15:08:02.905Z,29.62
2022-09-05T15:12:15.295Z,29.83
2022-09-05T15:13:39.190Z,29.70
2022-09-05T15:16:13.183Z,29.76
2022-09-05T15:18:45.327Z,29.57
2022-09-05T15:21:33.614Z,29.49
2022-09-05T15:24:21.439Z,29.57
2022-09-05T15:26:53.819Z,29.39
2022-09-05T15:29:25.839Z,29.41
2022-09-05T15:32:27.474Z,29.52
2022-09-05T15:35:03.379Z,29.44
2022-09-05T15:37:37.338Z,29.56
2022-09-05T15:40:23.232Z,29.52
2022-09-05T15:42:58.056Z,29.48
2022-09-05T15:45:35.090Z,29.49
2022-09-05T15:48:18.185Z,29.60
2022-09-05T15:50:50.720Z,29.55
2022-09-05T15:53:29.232Z,29.58
2022-09-05T15:56:12.367Z,29.50
2022-09-05T15:58:55.266Z,29.56
2022-09-05T16:01:46.495Z,29.49
2022-09-05T16:08:29.448Z,29.33
2022-09-05T16:10:35.547Z,29.37
2022-09-05T16:10:44.907Z,29.42
2022-09-05T16:13:15.750Z,29.49
2022-09-05T16:21:38.337Z,29.54
2022-09-05T16:23:17.309Z,29.52
2022-09-05T16:23:34.272Z,29.45
2022-09-05T16:24:59.197Z,29.40
2022-09-05T16:27:44.933Z,29.26
2022-09-05T16:30:15.735Z,29.25
2022-09-05T16:32:56.321Z,29.19
2022-09-05T16:35:27.131Z,29.26
2022-09-05T16:38:18.100Z,29.13
2022-09-05T16:40:58.617Z,29.11
2022-09-05T16:43:29.237Z,29.10
2022-09-05T16:46:05.736Z,29.24
2022-09-05T16:48:44.859Z,29.28
2022-09-05T16:51:34.978Z,29.24
2022-09-05T16:54:14.010Z,29.14
2022-09-05T16:56:54.808Z,29.21
2022-09-05T16:59:30.584Z,29.07
2022-09-05T17:02:08.833Z,29.02
2022-09-05T17:05:03.302Z,29.06
2022-09-05T17:07:33.357Z,29.00
2022-09-05T17:10:12.340Z,28.91
2022-09-05T17:12:45.577Z,28.95
2022-09-05T17:15:23.125Z,29.00
2022-09-05T17:18:22.113Z,28.89
2022-09-05T17:20:52.305Z,28.85
2022-09-05T17:29:15.248Z,28.81
2022-09-05T17:29:33.145Z,28.74
2022-09-05T17:32:51.700Z,28.58
2022-09-05T17:35:42.483Z,28.52
2022-09-05T17:38:25.012Z,28.60
2022-09-05T17:41:11.467Z,28.51
2022-09-05T17:43:44.490Z,28.58
2022-09-05T17:46:12.343Z,28.54
2022-09-05T17:48:46.483Z,28.58
2022-09-05T17:51:41.834Z,28.54
2022-09-05T17:54:30.615Z,28.53
2022-09-05T17:57:24.585Z,28.41
2022-09-05T17:59:56.017Z,28.19
2022-09-05T18:02:26.025Z,28.19
2022-09-05T18:05:00.374Z,28.21
2022-09-05T18:07:29.523Z,28.08
2022-09-05T18:13:31.211Z,28.11
2022-09-05T18:15:53.344Z,28.12
2022-09-05T18:19:32.159Z,28.14
2022-09-05T18:21:25.921Z,28.12
2022-09-05T18:24:04.785Z,28.14
2022-09-05T18:26:46.283Z,28.10
2022-09-05T18:29:31.064Z,28.00
2022-09-05T18:32:21.781Z,27.92
2022-09-05T18:35:15.379Z,27.91
2022-09-05T18:37:52.113Z,27.94
2022-09-05T18:40:41.273Z,27.95
2022-09-05T18:43:29.058Z,27.95
2022-09-05T18:45:59.489Z,28.01
2022-09-05T18:50:00.285Z,27.99
2022-09-05T18:51:51.131Z,28.02
2022-09-05T18:54:20.526Z,28.02
2022-09-05T18:57:27.319Z,27.85
2022-09-05T18:59:55.121Z,27.88
2022-09-05T19:02:54.154Z,27.89
2022-09-05T19:05:32.729Z,27.88
2022-09-05T19:08:06.617Z,27.83
2022-09-05T19:10:43.442Z,27.83
2022-09-05T19:13:19.578Z,27.84
2022-09-05T19:16:42.160Z,27.77
2022-09-05T19:19:08.866Z,27.59
2022-09-05T19:21:47.098Z,27.61
2022-09-05T19:24:44.790Z,27.64
2022-09-05T19:28:05.976Z,27.61
2022-09-05T19:36:53.486Z,27.61
2022-09-05T19:37:03.965Z,27.38
2022-09-05T19:37:14.267Z,27.50
2022-09-05T19:42:14.383Z,27.46
2022-09-05T19:47:33.996Z,27.48
2022-09-05T19:47:39.458Z,27.46
2022-09-05T19:48:07.667Z,27.43
2022-09-05T19:51:15.344Z,27.22
2022-09-05T19:54:04.643Z,27.27
2022-09-05T19:56:45.949Z,27.36
2022-09-05T19:59:22.982Z,27.39
2022-09-05T20:01:54.101Z,27.18
2022-09-05T20:04:21.544Z,27.10
2022-09-05T20:06:57.135Z,26.94
2022-09-05T20:09:25.921Z,27.04
2022-09-05T20:12:00.598Z,27.15
2022-09-05T20:14:38.073Z,27.26
2022-09-05T20:17:27.296Z,27.29
2022-09-05T20:20:08.984Z,27.33
2022-09-05T20:22:48.234Z,27.36
2022-09-05T20:25:34.988Z,26.87
2022-09-05T20:28:13.304Z,25.99
2022-09-05T20:30:49.320Z,25.77
2022-09-05T20:33:23.367Z,25.86
2022-09-05T20:41:57.491Z,26.06
2022-09-05T20:43:19.942Z,25.91
2022-09-05T20:43:24.000Z,25.75
2022-09-05T20:44:42.365Z,25.72
2022-09-05T20:54:05.740Z,25.89
2022-09-05T20:54:08.451Z,25.69
2022-09-05T20:54:21.742Z,26.25
2022-09-05T20:56:24.718Z,26.09
2022-09-05T20:58:55.844Z,26.38
2022-09-05T21:01:32.696Z,26.50
2022-09-05T21:04:25.421Z,26.55
2022-09-05T21:06:58.165Z,26.44
2022-09-05T21:09:30.246Z,26.43
2022-09-05T21:12:06.488Z,26.13
2022-09-05T21:14:41.583Z,26.13
2022-09-05T21:17:15.518Z,26.09
2022-09-05T21:19:53.609Z,26.01
2022-09-05T21:22:28.377Z,26.29
2022-09-05T21:25:44.020Z,26.31
2022-09-05T21:28:37.226Z,26.38
2022-09-05T21:31:12.906Z,26.29
2022-09-05T21:33:57.590Z,26.09
2022-09-05T21:36:28.979Z,26.09
2022-09-05T21:38:59.745Z,26.29
2022-09-05T21:41:27.466Z,26.37
2022-09-05T21:47:35.260Z,26.26
2022-09-05T21:47:48.740Z,26.20
2022-09-05T21:49:49.040Z,26.24
2022-09-05T21:52:21.309Z,26.41
2022-09-05T21:59:21.634Z,26.46
2022-09-05T21:59:26.347Z,26.29
2022-09-05T22:00:42.641Z,26.47
2022-09-05T22:03:18.223Z,26.68
2022-09-05T22:05:49.627Z,26.60
2022-09-05T22:08:22.643Z,26.54
2022-09-05T22:10:58.296Z,26.50
2022-09-05T22:13:28.533Z,26.41
2022-09-05T22:16:04.753Z,26.26
2022-09-05T22:18:39.363Z,26.41
2022-09-05T22:21:32.574Z,26.45
2022-09-05T22:24:04.742Z,26.14
2022-09-05T22:27:10.753Z,26.27
2022-09-05T22:29:40.135Z,26.34
2022-09-05T22:32:09.784Z,26.10
2022-09-05T22:34:42.655Z,26.28
2022-09-05T22:37:17.033Z,26.25
2022-09-05T22:39:49.772Z,26.34
2022-09-05T22:42:18.103Z,26.14
2022-09-05T22:45:08.502Z,26.23
2022-09-05T22:47:41.450Z,26.29
2022-09-05T22:50:11.882Z,26.34
2022-09-05T22:52:43.092Z,26.31
2022-09-05T22:55:11.057Z,26.49
2022-09-05T22:57:41.258Z,26.32
2022-09-05T23:00:09.346Z,26.45
2022-09-05T23:02:39.076Z,26.44
2022-09-05T23:05:12.157Z,26.40
2022-09-05T23:07:42.230Z,26.21
2022-09-05T23:10:12.554Z,26.34
2022-09-05T23:12:45.613Z,26.32
2022-09-05T23:15:15.890Z,26.24
2022-09-05T23:17:45.935Z,26.29
2022-09-05T23:20:17.084Z,26.23
2022-09-05T23:22:55.357Z,26.03
2022-09-05T23:25:25.920Z,25.61
2022-09-05T23:27:54.097Z,25.86
2022-09-05T23:30:24.305Z,26.06
2022-09-05T23:32:54.807Z,25.89
2022-09-05T23:35:25.575Z,25.96
2022-09-05T23:37:56.274Z,25.94
2022-09-05T23:40:29.562Z,25.71
2022-09-05T23:43:04.328Z,25.63
2022-09-05T23:45:32.121Z,25.74
2022-09-05T23:48:02.551Z,25.96
2022-09-05T23:50:32.717Z,26.09
2022-09-05T23:53:04.586Z,26.16
2022-09-05T23:55:35.263Z,26.16
2022-09-05T23:58:11.199Z,26.23
